KHY2658 RPLC-RPNS
Flight info
| Callsign | KHY2658 |
|---|---|
| Flight time | N/A |
| Altitude | 21000 |
| Route | OLIVA2E OLIVA W16 MIA B462 MASBA W9A EVLIN |
| Aircraft | SF34/M-SDFGR/S |
Departure
| Time | 2026-04-26 01:57 |
|---|---|
| Airport | Clark International Airport / Clark Air Base (RPLC) |
Arrival
| Time | N/A |
|---|---|
| Airport | Siargao Airport (RPNS) |
| Time | Latitude | Longitude | Altitude | Speed | Heading |
|---|---|---|---|---|---|
| 2026-04-26 01:39 | 15.19384 | 120.55951 | 485 ft | 0 kts | 291° |
| 2026-04-26 01:49 | 15.19384 | 120.55950 | 485 ft | 0 kts | 291° |
| 2026-04-26 01:49 | 15.19383 | 120.55954 | 485 ft | 2 kts | 291° |
| 2026-04-26 01:49 | 15.19378 | 120.55968 | 485 ft | 2 kts | 291° |
| 2026-04-26 01:50 | 15.19373 | 120.55981 | 485 ft | 2 kts | 291° |
| 2026-04-26 01:50 | 15.19367 | 120.55996 | 485 ft | 2 kts | 291° |
| 2026-04-26 01:50 | 15.19364 | 120.56006 | 485 ft | 0 kts | 291° |
| 2026-04-26 01:50 | 15.19363 | 120.56020 | 485 ft | 2 kts | 252° |
| 2026-04-26 01:51 | 15.19371 | 120.56032 | 485 ft | 2 kts | 212° |
| 2026-04-26 01:51 | 15.19377 | 120.56035 | 485 ft | 0 kts | 200° |
| 2026-04-26 01:53 | 15.19376 | 120.56035 | 485 ft | 0 kts | 200° |
| 2026-04-26 01:53 | 15.19344 | 120.56023 | 485 ft | 10 kts | 201° |
| 2026-04-26 01:54 | 15.19252 | 120.55985 | 485 ft | 18 kts | 203° |
| 2026-04-26 01:54 | 15.19140 | 120.55971 | 485 ft | 13 kts | 131° |
| 2026-04-26 01:54 | 15.19046 | 120.55995 | 485 ft | 19 kts | 201° |
| 2026-04-26 01:54 | 15.18895 | 120.55936 | 485 ft | 25 kts | 200° |
| 2026-04-26 01:55 | 15.18747 | 120.55878 | 485 ft | 23 kts | 193° |
| 2026-04-26 01:55 | 15.18587 | 120.55813 | 485 ft | 24 kts | 201° |
| 2026-04-26 01:55 | 15.18417 | 120.55747 | 485 ft | 26 kts | 201° |
| 2026-04-26 01:55 | 15.18279 | 120.55698 | 485 ft | 16 kts | 176° |
| 2026-04-26 01:56 | 15.18219 | 120.55806 | 485 ft | 22 kts | 112° |
| 2026-04-26 01:56 | 15.18159 | 120.55966 | 485 ft | 23 kts | 111° |
| 2026-04-26 01:56 | 15.18175 | 120.56078 | 485 ft | 18 kts | 19° |
| 2026-04-26 01:56 | 15.18498 | 120.56206 | 486 ft | 95 kts | 20° |
| 2026-04-26 01:57 | 15.19294 | 120.56509 | 736 ft | 138 kts | 19° |
| 2026-04-26 01:57 | 15.20215 | 120.56840 | 1347 ft | 150 kts | 16° |
| 2026-04-26 01:57 | 15.21182 | 120.57214 | 2165 ft | 148 kts | 20° |
| 2026-04-26 01:57 | 15.22102 | 120.57585 | 2962 ft | 145 kts | 20° |
| 2026-04-26 01:58 | 15.22923 | 120.58147 | 3687 ft | 148 kts | 53° |
| 2026-04-26 01:58 | 15.23160 | 120.59154 | 4369 ft | 154 kts | 96° |
| 2026-04-26 01:58 | 15.22644 | 120.60117 | 5032 ft | 161 kts | 140° |
| 2026-04-26 01:58 | 15.21606 | 120.60489 | 5672 ft | 163 kts | 184° |
| 2026-04-26 01:59 | 15.20532 | 120.60188 | 6320 ft | 163 kts | 202° |
| 2026-04-26 01:59 | 15.19469 | 120.59824 | 6943 ft | 165 kts | 199° |
| 2026-04-26 01:59 | 15.18363 | 120.59512 | 7556 ft | 168 kts | 197° |
| 2026-04-26 01:59 | 15.17235 | 120.59228 | 8155 ft | 169 kts | 196° |
| 2026-04-26 02:00 | 15.16090 | 120.58958 | 8740 ft | 171 kts | 194° |
| 2026-04-26 02:00 | 15.14913 | 120.59054 | 9285 ft | 177 kts | 165° |
| 2026-04-26 02:00 | 15.13755 | 120.59573 | 9727 ft | 187 kts | 152° |
| 2026-04-26 02:00 | 15.12617 | 120.60277 | 10115 ft | 197 kts | 148° |
| 2026-04-26 02:01 | 15.11434 | 120.61063 | 10488 ft | 203 kts | 147° |
| 2026-04-26 02:01 | 15.10249 | 120.61860 | 10839 ft | 207 kts | 147° |
| 2026-04-26 02:01 | 15.09034 | 120.62678 | 11208 ft | 209 kts | 148° |
| 2026-04-26 02:01 | 15.07820 | 120.63494 | 11580 ft | 210 kts | 148° |
| 2026-04-26 02:02 | 15.06597 | 120.64316 | 11951 ft | 211 kts | 148° |
| 2026-04-26 02:02 | 15.05368 | 120.65141 | 12317 ft | 212 kts | 148° |
| 2026-04-26 02:02 | 15.04145 | 120.65968 | 12579 ft | 212 kts | 147° |
| 2026-04-26 02:02 | 15.02903 | 120.66814 | 12844 ft | 215 kts | 147° |
| 2026-04-26 02:03 | 15.01649 | 120.67669 | 13151 ft | 215 kts | 147° |
| 2026-04-26 02:03 | 15.00407 | 120.68514 | 13448 ft | 215 kts | 147° |
| 2026-04-26 02:03 | 14.99160 | 120.69363 | 13734 ft | 216 kts | 147° |
| 2026-04-26 02:03 | 14.97900 | 120.70221 | 14039 ft | 218 kts | 147° |
| 2026-04-26 02:04 | 14.96640 | 120.71079 | 14427 ft | 218 kts | 147° |
| 2026-04-26 02:04 | 14.95369 | 120.71947 | 14743 ft | 223 kts | 147° |
| 2026-04-26 02:04 | 14.94087 | 120.72819 | 15203 ft | 221 kts | 147° |
| 2026-04-26 02:04 | 14.92811 | 120.73687 | 15664 ft | 219 kts | 147° |
| 2026-04-26 02:05 | 14.91546 | 120.74548 | 16072 ft | 220 kts | 147° |
| 2026-04-26 02:05 | 14.90271 | 120.75414 | 16460 ft | 220 kts | 147° |
| 2026-04-26 02:05 | 14.88982 | 120.76289 | 16844 ft | 221 kts | 147° |
| 2026-04-26 02:05 | 14.87700 | 120.77161 | 17220 ft | 222 kts | 146° |
| 2026-04-26 02:06 | 14.86424 | 120.78028 | 17572 ft | 223 kts | 146° |
| 2026-04-26 02:06 | 14.85130 | 120.78906 | 17918 ft | 224 kts | 146° |
| 2026-04-26 02:06 | 14.83819 | 120.79797 | 18256 ft | 225 kts | 146° |
| 2026-04-26 02:06 | 14.82518 | 120.80680 | 18582 ft | 226 kts | 146° |
| 2026-04-26 02:07 | 14.81209 | 120.81569 | 18905 ft | 227 kts | 146° |
| 2026-04-26 02:07 | 14.79888 | 120.82465 | 19220 ft | 228 kts | 146° |
| 2026-04-26 02:07 | 14.78563 | 120.83365 | 19529 ft | 229 kts | 146° |
| 2026-04-26 02:07 | 14.77235 | 120.84268 | 19823 ft | 230 kts | 146° |
| 2026-04-26 02:08 | 14.75912 | 120.85168 | 20108 ft | 231 kts | 146° |
| 2026-04-26 02:08 | 14.74558 | 120.86088 | 20397 ft | 231 kts | 146° |
| 2026-04-26 02:08 | 14.73211 | 120.87002 | 20678 ft | 232 kts | 146° |
| 2026-04-26 02:08 | 14.71878 | 120.87907 | 20926 ft | 234 kts | 146° |
| 2026-04-26 02:09 | 14.70485 | 120.88852 | 20974 ft | 245 kts | 146° |
| 2026-04-26 02:09 | 14.69034 | 120.89837 | 20983 ft | 256 kts | 146° |
| 2026-04-26 02:09 | 14.67517 | 120.90865 | 20981 ft | 265 kts | 146° |
| 2026-04-26 02:09 | 14.65950 | 120.91926 | 20978 ft | 272 kts | 146° |
| 2026-04-26 02:10 | 14.64363 | 120.93002 | 20976 ft | 278 kts | 146° |
| 2026-04-26 02:10 | 14.62727 | 120.94109 | 20974 ft | 283 kts | 146° |
| 2026-04-26 02:10 | 14.61065 | 120.95234 | 20973 ft | 287 kts | 146° |
| 2026-04-26 02:10 | 14.59382 | 120.96375 | 20972 ft | 290 kts | 146° |
| 2026-04-26 02:11 | 14.57701 | 120.97513 | 20970 ft | 293 kts | 146° |
| 2026-04-26 02:11 | 14.55985 | 120.98674 | 20970 ft | 295 kts | 146° |
| 2026-04-26 02:11 | 14.54274 | 120.99832 | 20970 ft | 297 kts | 146° |
| 2026-04-26 02:11 | 14.52537 | 121.01005 | 20964 ft | 292 kts | 146° |
| 2026-04-26 02:12 | 14.50977 | 121.02300 | 20959 ft | 288 kts | 132° |
| 2026-04-26 02:12 | 14.49617 | 121.03791 | 20969 ft | 286 kts | 130° |
| 2026-04-26 02:12 | 14.48303 | 121.05332 | 20970 ft | 286 kts | 129° |
| 2026-04-26 02:12 | 14.47016 | 121.06891 | 20969 ft | 287 kts | 128° |
| 2026-04-26 02:13 | 14.45736 | 121.08463 | 20969 ft | 288 kts | 128° |
| 2026-04-26 02:13 | 14.44444 | 121.10058 | 20969 ft | 289 kts | 127° |
| 2026-04-26 02:13 | 14.43163 | 121.11651 | 20973 ft | 288 kts | 132° |
| 2026-04-26 02:13 | 14.41869 | 121.13247 | 20967 ft | 288 kts | 132° |
| 2026-04-26 02:14 | 14.40587 | 121.14830 | 20967 ft | 288 kts | 132° |
| 2026-04-26 02:14 | 14.39304 | 121.16415 | 20967 ft | 288 kts | 132° |
| 2026-04-26 02:14 | 14.38025 | 121.17996 | 20967 ft | 289 kts | 132° |
| 2026-04-26 02:14 | 14.36746 | 121.19577 | 20968 ft | 289 kts | 132° |
| 2026-04-26 02:15 | 14.35456 | 121.21172 | 20968 ft | 289 kts | 132° |
| 2026-04-26 02:15 | 14.34182 | 121.22747 | 20968 ft | 289 kts | 132° |
| 2026-04-26 02:15 | 14.32881 | 121.24355 | 20968 ft | 290 kts | 132° |
| 2026-04-26 02:15 | 14.31600 | 121.25938 | 20968 ft | 290 kts | 132° |
| 2026-04-26 02:16 | 14.30307 | 121.27534 | 20968 ft | 290 kts | 132° |
| 2026-04-26 02:16 | 14.29010 | 121.29137 | 20968 ft | 290 kts | 132° |
| 2026-04-26 02:16 | 14.27733 | 121.30713 | 20968 ft | 290 kts | 132° |
| 2026-04-26 02:16 | 14.26433 | 121.32318 | 20968 ft | 290 kts | 132° |
| 2026-04-26 02:17 | 14.25147 | 121.33905 | 20968 ft | 290 kts | 132° |
| 2026-04-26 02:17 | 14.23858 | 121.35496 | 20968 ft | 290 kts | 132° |
| 2026-04-26 02:17 | 14.22561 | 121.37096 | 20969 ft | 290 kts | 132° |
| 2026-04-26 02:17 | 14.21275 | 121.38684 | 20968 ft | 290 kts | 132° |
| 2026-04-26 02:18 | 14.19973 | 121.40290 | 20968 ft | 290 kts | 132° |
| 2026-04-26 02:18 | 14.18691 | 121.41871 | 20969 ft | 290 kts | 132° |
| 2026-04-26 02:18 | 14.17386 | 121.43480 | 20968 ft | 290 kts | 132° |
| 2026-04-26 02:18 | 14.16106 | 121.45058 | 20968 ft | 290 kts | 132° |
| 2026-04-26 02:19 | 14.14809 | 121.46657 | 20968 ft | 290 kts | 132° |
| 2026-04-26 02:19 | 14.13511 | 121.48255 | 20968 ft | 290 kts | 132° |
| 2026-04-26 02:19 | 14.12227 | 121.49837 | 20968 ft | 291 kts | 132° |
| 2026-04-26 02:19 | 14.10932 | 121.51432 | 20969 ft | 291 kts | 132° |
| 2026-04-26 02:20 | 14.09629 | 121.53036 | 20969 ft | 291 kts | 132° |
| 2026-04-26 02:20 | 14.08331 | 121.54634 | 20969 ft | 291 kts | 132° |
| 2026-04-26 02:20 | 14.07039 | 121.56224 | 20969 ft | 291 kts | 132° |
| 2026-04-26 02:20 | 14.05749 | 121.57812 | 20968 ft | 291 kts | 132° |
| 2026-04-26 02:21 | 14.04450 | 121.59409 | 20969 ft | 291 kts | 132° |
| 2026-04-26 02:21 | 14.03163 | 121.60993 | 20969 ft | 291 kts | 132° |
| 2026-04-26 02:21 | 14.01863 | 121.62592 | 20969 ft | 291 kts | 132° |
| 2026-04-26 02:21 | 14.00565 | 121.64188 | 20969 ft | 291 kts | 132° |
| 2026-04-26 02:22 | 13.99263 | 121.65790 | 20967 ft | 291 kts | 132° |
| 2026-04-26 02:22 | 13.97978 | 121.67369 | 20966 ft | 290 kts | 132° |
| 2026-04-26 02:22 | 13.96674 | 121.68971 | 20966 ft | 290 kts | 132° |
| 2026-04-26 02:22 | 13.95379 | 121.70561 | 20966 ft | 290 kts | 132° |
| 2026-04-26 02:23 | 13.94099 | 121.72134 | 20966 ft | 290 kts | 132° |
| 2026-04-26 02:23 | 13.92798 | 121.73731 | 20966 ft | 290 kts | 132° |
| 2026-04-26 02:23 | 13.91512 | 121.75311 | 20966 ft | 290 kts | 132° |
| 2026-04-26 02:23 | 13.90213 | 121.76906 | 20966 ft | 290 kts | 132° |
| 2026-04-26 02:24 | 13.88926 | 121.78485 | 20968 ft | 290 kts | 132° |
| 2026-04-26 02:24 | 13.87625 | 121.80083 | 20968 ft | 290 kts | 132° |
| 2026-04-26 02:24 | 13.86334 | 121.81667 | 20968 ft | 290 kts | 132° |
| 2026-04-26 02:24 | 13.85027 | 121.83270 | 20968 ft | 290 kts | 132° |
| 2026-04-26 02:25 | 13.83741 | 121.84847 | 20968 ft | 290 kts | 132° |
| 2026-04-26 02:25 | 13.82440 | 121.86443 | 20968 ft | 290 kts | 132° |
| 2026-04-26 02:25 | 13.81150 | 121.88024 | 20968 ft | 290 kts | 132° |
| 2026-04-26 02:25 | 13.79861 | 121.89604 | 20968 ft | 290 kts | 132° |
| 2026-04-26 02:26 | 13.78553 | 121.91207 | 20968 ft | 290 kts | 132° |
| 2026-04-26 02:26 | 13.77256 | 121.92798 | 20968 ft | 290 kts | 132° |
| 2026-04-26 02:26 | 13.75965 | 121.94379 | 20968 ft | 290 kts | 132° |
| 2026-04-26 02:26 | 13.74663 | 121.95974 | 20968 ft | 290 kts | 132° |
| 2026-04-26 02:27 | 13.73371 | 121.97556 | 20968 ft | 290 kts | 132° |
| 2026-04-26 02:27 | 13.72077 | 121.99140 | 20968 ft | 291 kts | 132° |
| 2026-04-26 02:27 | 13.70783 | 122.00724 | 20968 ft | 291 kts | 132° |
| 2026-04-26 02:27 | 13.69473 | 122.02328 | 20968 ft | 291 kts | 132° |
| 2026-04-26 02:28 | 13.68177 | 122.03914 | 20968 ft | 291 kts | 132° |
| 2026-04-26 02:28 | 13.66881 | 122.05500 | 20968 ft | 291 kts | 132° |
| 2026-04-26 02:28 | 13.65580 | 122.07091 | 20968 ft | 291 kts | 132° |
| 2026-04-26 02:28 | 13.64292 | 122.08667 | 20968 ft | 291 kts | 132° |
| 2026-04-26 02:29 | 13.62986 | 122.10263 | 20968 ft | 291 kts | 132° |
| 2026-04-26 02:29 | 13.61696 | 122.11841 | 20968 ft | 291 kts | 132° |
| 2026-04-26 02:29 | 13.60397 | 122.13429 | 20968 ft | 291 kts | 132° |
| 2026-04-26 02:29 | 13.59097 | 122.15018 | 20968 ft | 291 kts | 132° |
| 2026-04-26 02:30 | 13.57803 | 122.16599 | 20968 ft | 291 kts | 132° |
| 2026-04-26 02:30 | 13.56492 | 122.18201 | 20968 ft | 291 kts | 132° |
| 2026-04-26 02:30 | 13.55192 | 122.19789 | 20968 ft | 291 kts | 132° |
| 2026-04-26 02:30 | 13.53892 | 122.21376 | 20968 ft | 291 kts | 132° |
| 2026-04-26 02:31 | 13.52596 | 122.22958 | 20968 ft | 291 kts | 132° |
| 2026-04-26 02:31 | 13.51299 | 122.24543 | 20969 ft | 291 kts | 132° |
| 2026-04-26 02:31 | 13.50002 | 122.26125 | 20969 ft | 291 kts | 132° |
| 2026-04-26 02:31 | 13.48696 | 122.27719 | 20969 ft | 291 kts | 132° |
| 2026-04-26 02:32 | 13.47396 | 122.29305 | 20969 ft | 291 kts | 132° |
| 2026-04-26 02:32 | 13.46106 | 122.30879 | 20969 ft | 291 kts | 132° |
| 2026-04-26 02:32 | 13.44801 | 122.32471 | 20969 ft | 291 kts | 132° |
| 2026-04-26 02:32 | 13.44369 | 122.32998 | 20969 ft | 291 kts | 132° |